Time;durP1;ratioP1;P1;durP2;ratioP2;P2;SDS_P1;SDS_P2;PMS_P1;PMS_P2;Temp;Humidity;BMP_temperature;BMP_pressure;BME280_temperature;BME280_humidity;BME280_pressure;Samples;Min_cycle;Max_cycle;Signal;HPM_P1;HPM_P2
2023/03/09 00:00:41;;;;;;;;;;;5.50;99.90;;;;;;4991449;28;19918;-65
2023/03/09 00:03:15;;;;;;;;;;;5.50;99.90;;;;;;4989294;28;19913;-68
2023/03/09 00:05:50;;;;;;;;;;;5.50;99.90;;;;;;4989510;28;19918;-66
2023/03/09 00:08:16;;;;;;;;;;;5.40;99.90;;;;;;4987019;28;19920;-66
2023/03/09 00:10:42;;;;;;;;;;;5.40;99.90;;;;;;4991698;28;19914;-66
2023/03/09 00:13:07;;;;;;;;;;;5.40;99.90;;;;;;4992343;28;19918;-64
2023/03/09 00:15:33;;;;;;;;;;;5.30;99.90;;;;;;4993879;28;19920;-66
2023/03/09 00:17:59;;;;;;;;;;;5.40;99.90;;;;;;4988379;28;19968;-66
2023/03/09 00:20:24;;;;;;;;;;;5.40;99.90;;;;;;4985851;28;20381;-67
2023/03/09 00:22:51;;;;;;;;;;;5.50;99.90;;;;;;4996532;28;19924;-64
2023/03/09 00:25:17;;;;;;;;;;;5.50;99.90;;;;;;4995557;28;19940;-67
2023/03/09 00:27:46;;;;;;;;;;;5.60;99.90;;;;;;4982455;28;19958;-65
2023/03/09 00:30:13;;;;;;;;;;;5.60;99.90;;;;;;4979517;28;19921;-65
2023/03/09 00:32:38;;;;;;;;;;;5.70;99.90;;;;;;4997608;28;20040;-66
2023/03/09 00:35:04;;;;;;;;;;;5.60;99.90;;;;;;4998186;28;20140;-64
2023/03/09 00:37:30;;;;;;;;;;;5.60;99.90;;;;;;4979909;28;19922;-65
2023/03/09 00:39:56;;;;;;;;;;;5.60;99.90;;;;;;4978040;28;20015;-65
2023/03/09 00:42:21;;;;;;;;;;;5.60;99.90;;;;;;4976488;28;19917;-66
2023/03/09 00:44:47;;;;;;;;;;;5.60;99.90;;;;;;4994972;28;19918;-66
2023/03/09 00:47:12;;;;;;;;;;;5.60;99.90;;;;;;4995221;28;19913;-65
2023/03/09 00:49:38;;;;;;;;;;;5.60;99.90;;;;;;4991102;28;20392;-66
2023/03/09 00:52:04;;;;;;;;;;;5.50;99.90;;;;;;4986682;28;19929;-66
2023/03/09 00:54:29;;;;;;;;;;;5.60;99.90;;;;;;4991397;28;19914;-65
2023/03/09 00:56:55;;;;;;;;;;;5.60;99.90;;;;;;4985445;28;19914;-65
2023/03/09 00:59:20;;;;;;;;;;;5.60;99.90;;;;;;4991822;28;19914;-65
2023/03/09 01:01:46;;;;;;;;;;;5.50;99.90;;;;;;4990899;28;19945;-66
2023/03/09 01:04:11;;;;;;;;;;;5.50;99.90;;;;;;4990767;28;19918;-66
2023/03/09 01:06:37;;;;;;;;;;;5.60;99.90;;;;;;4991023;28;19960;-67
2023/03/09 01:09:03;;;;;;;;;;;5.60;99.90;;;;;;4989327;28;19921;-66
2023/03/09 01:11:28;;;;;;;;;;;5.60;99.90;;;;;;4996744;28;19921;-65
2023/03/09 01:13:54;;;;;;;;;;;5.70;99.90;;;;;;4996869;28;20428;-66
2023/03/09 01:16:20;;;;;;;;;;;5.70;99.90;;;;;;4995410;28;19947;-67
2023/03/09 01:18:45;;;;;;;;;;;5.70;99.90;;;;;;4993212;28;20281;-66
2023/03/09 01:21:11;;;;;;;;;;;5.80;99.90;;;;;;4976978;28;19939;-65
2023/03/09 01:23:37;;;;;;;;;;;5.80;99.90;;;;;;4992064;28;19914;-67
2023/03/09 01:26:03;;;;;;;;;;;5.80;99.90;;;;;;4994844;28;20009;-66
2023/03/09 01:28:29;;;;;;;;;;;5.80;99.90;;;;;;4992720;28;19941;-66
2023/03/09 01:30:54;;;;;;;;;;;5.80;99.90;;;;;;4994953;28;19921;-65
2023/03/09 01:33:20;;;;;;;;;;;5.80;99.90;;;;;;4995418;28;19918;-67
2023/03/09 01:35:46;;;;;;;;;;;5.90;99.90;;;;;;4995554;28;19922;-66
2023/03/09 01:38:11;;;;;;;;;;;5.90;99.90;;;;;;4990620;28;19960;-66
2023/03/09 01:40:37;;;;;;;;;;;5.80;99.90;;;;;;4998932;28;20044;-66
2023/03/09 01:43:21;;;;;;;;;;;5.70;99.90;;;;;;4991206;28;19925;-66
2023/03/09 01:45:46;;;;;;;;;;;5.60;99.90;;;;;;4994386;28;19917;-67
2023/03/09 01:48:11;;;;;;;;;;;5.60;99.90;;;;;;4994419;28;20004;-67
2023/03/09 01:50:37;;;;;;;;;;;5.60;99.90;;;;;;4992852;28;19936;-66
2023/03/09 01:53:05;;;;;;;;;;;5.60;99.90;;;;;;4985920;28;19929;-67
2023/03/09 01:55:35;;;;;;;;;;;5.70;99.90;;;;;;4971320;28;19967;-65
2023/03/09 01:58:20;;;;;;;;;;;5.70;99.90;;;;;;4989075;28;19918;-66
2023/03/09 02:00:48;;;;;;;;;;;5.70;99.90;;;;;;4987426;28;19948;-65
2023/03/09 02:03:16;;;;;;;;;;;5.60;99.90;;;;;;4985620;28;19914;-65
2023/03/09 02:05:45;;;;;;;;;;;5.60;99.90;;;;;;4988574;28;20357;-66
2023/03/09 02:08:11;;;;;;;;;;;5.70;99.90;;;;;;4987348;28;19914;-66
2023/03/09 02:10:40;;;;;;;;;;;5.70;99.90;;;;;;4990090;28;19929;-65
2023/03/09 02:13:09;;;;;;;;;;;5.70;99.90;;;;;;4988616;28;19967;-65
2023/03/09 02:15:35;;;;;;;;;;;5.70;99.90;;;;;;4987345;28;20323;-66
2023/03/09 02:18:00;;;;;;;;;;;5.70;99.90;;;;;;4989584;28;19954;-66
2023/03/09 02:20:26;;;;;;;;;;;5.70;99.90;;;;;;4973009;28;19969;-65
2023/03/09 02:22:52;;;;;;;;;;;5.80;99.90;;;;;;4987706;28;19932;-66
2023/03/09 02:25:27;;;;;;;;;;;5.80;99.90;;;;;;4989792;28;19972;-66
2023/03/09 02:27:53;;;;;;;;;;;5.80;99.90;;;;;;4989360;28;19932;-65
2023/03/09 02:30:19;;;;;;;;;;;5.80;99.90;;;;;;4989290;28;19914;-66
2023/03/09 02:32:44;;;;;;;;;;;5.80;99.90;;;;;;4986970;28;20008;-66
2023/03/09 02:35:10;;;;;;;;;;;5.70;99.90;;;;;;4988331;28;19920;-66
2023/03/09 02:37:37;;;;;;;;;;;5.70;99.90;;;;;;4992514;28;20529;-65
2023/03/09 02:40:13;;;;;;;;;;;5.70;99.90;;;;;;4987502;28;19914;-65
2023/03/09 02:42:39;;;;;;;;;;;5.60;99.90;;;;;;4985732;28;19961;-66
2023/03/09 02:45:05;;;;;;;;;;;5.60;99.90;;;;;;4989769;28;19996;-66
2023/03/09 02:47:31;;;;;;;;;;;5.60;99.90;;;;;;4990290;28;19929;-65
2023/03/09 02:49:56;;;;;;;;;;;5.60;99.90;;;;;;4988355;28;19917;-65
2023/03/09 02:52:22;;;;;;;;;;;5.50;99.90;;;;;;4987410;28;19957;-65
2023/03/09 02:54:48;;;;;;;;;;;5.40;99.90;;;;;;4974392;28;19922;-65
2023/03/09 02:57:13;;;;;;;;;;;5.30;99.90;;;;;;4993471;28;19984;-66
2023/03/09 02:59:39;;;;;;;;;;;5.30;99.90;;;;;;4990097;28;20612;-65
2023/03/09 03:02:04;;;;;;;;;;;5.30;99.90;;;;;;4988967;28;19925;-64
2023/03/09 03:04:30;;;;;;;;;;;5.30;99.90;;;;;;4986680;28;19928;-65
2023/03/09 03:06:55;;;;;;;;;;;5.30;99.90;;;;;;4991503;28;19914;-64
2023/03/09 03:09:20;;;;;;;;;;;5.30;99.90;;;;;;4990147;28;19945;-66
2023/03/09 03:11:46;;;;;;;;;;;5.30;99.90;;;;;;4989111;28;19921;-66
2023/03/09 03:14:11;;;;;;;;;;;5.20;99.90;;;;;;4992547;28;19944;-65
2023/03/09 03:16:37;;;;;;;;;;;5.10;99.90;;;;;;4990290;28;19914;-65
2023/03/09 03:19:02;;;;;;;;;;;5.10;99.90;;;;;;4987688;28;21640;-66
2023/03/09 03:21:28;;;;;;;;;;;5.10;99.90;;;;;;4992059;28;19917;-67
2023/03/09 03:23:54;;;;;;;;;;;5.00;99.90;;;;;;4990565;28;19984;-66
2023/03/09 03:26:19;;;;;;;;;;;5.00;99.90;;;;;;4973346;28;20288;-65
2023/03/09 03:28:44;;;;;;;;;;;5.10;99.90;;;;;;4989877;28;19921;-66
2023/03/09 03:31:11;;;;;;;;;;;5.00;99.90;;;;;;4989802;28;20009;-64
2023/03/09 03:33:36;;;;;;;;;;;5.00;99.90;;;;;;4990685;28;20339;-65
2023/03/09 03:36:02;;;;;;;;;;;5.00;99.90;;;;;;4987201;28;19928;-66
2023/03/09 03:38:27;;;;;;;;;;;5.00;99.90;;;;;;4991220;28;19924;-65
2023/03/09 03:40:52;;;;;;;;;;;5.00;99.90;;;;;;4987914;28;19922;-67
2023/03/09 03:43:18;;;;;;;;;;;5.00;99.90;;;;;;4990824;28;19914;-66
2023/03/09 03:45:44;;;;;;;;;;;5.00;99.90;;;;;;4993221;28;19961;-66
2023/03/09 03:48:09;;;;;;;;;;;5.00;99.90;;;;;;4993698;28;19941;-65
2023/03/09 03:50:35;;;;;;;;;;;4.90;99.90;;;;;;4993250;28;20006;-67
2023/03/09 03:53:00;;;;;;;;;;;5.00;99.90;;;;;;4991232;28;19913;-66
2023/03/09 03:55:27;;;;;;;;;;;5.00;99.90;;;;;;4993648;28;20304;-65
2023/03/09 03:57:52;;;;;;;;;;;5.00;99.90;;;;;;4991552;28;19953;-68
2023/03/09 04:00:19;;;;;;;;;;;5.00;99.90;;;;;;4972711;28;20007;-65
2023/03/09 04:02:45;;;;;;;;;;;4.90;99.90;;;;;;4993577;28;19949;-65
2023/03/09 04:05:10;;;;;;;;;;;5.00;99.90;;;;;;4975587;28;20007;-65
2023/03/09 04:07:36;;;;;;;;;;;5.10;99.90;;;;;;4992798;28;19920;-65
2023/03/09 04:10:01;;;;;;;;;;;5.10;99.90;;;;;;4990418;28;19922;-65
2023/03/09 04:12:26;;;;;;;;;;;5.10;99.90;;;;;;4994466;28;19917;-65
2023/03/09 04:14:52;;;;;;;;;;;5.10;99.90;;;;;;4978445;28;19926;-64
2023/03/09 04:17:17;;;;;;;;;;;5.10;99.90;;;;;;4991040;28;19925;-65
2023/03/09 04:19:43;;;;;;;;;;;5.10;99.90;;;;;;4987691;28;19926;-65
2023/03/09 04:22:09;;;;;;;;;;;5.10;99.90;;;;;;4991769;28;20484;-64
2023/03/09 04:24:34;;;;;;;;;;;5.10;99.90;;;;;;4989729;28;19928;-65
2023/03/09 04:27:00;;;;;;;;;;;5.10;99.90;;;;;;4995322;28;19914;-65
2023/03/09 04:29:25;;;;;;;;;;;5.10;99.90;;;;;;4993163;28;19920;-66
2023/03/09 04:31:51;;;;;;;;;;;5.10;99.90;;;;;;4992207;28;19936;-65
2023/03/09 04:34:16;;;;;;;;;;;5.00;99.90;;;;;;4992400;28;19913;-66
2023/03/09 04:36:42;;;;;;;;;;;5.00;99.90;;;;;;4993173;28;19920;-65
2023/03/09 04:39:08;;;;;;;;;;;5.00;99.90;;;;;;4993671;28;20335;-66
2023/03/09 04:41:33;;;;;;;;;;;5.00;99.90;;;;;;4972793;28;19940;-65
2023/03/09 04:43:59;;;;;;;;;;;5.00;99.90;;;;;;4991501;28;20091;-65
2023/03/09 04:46:25;;;;;;;;;;;5.00;99.90;;;;;;4993760;28;19925;-65
2023/03/09 04:48:50;;;;;;;;;;;5.10;99.90;;;;;;4991268;28;19914;-64
2023/03/09 04:51:15;;;;;;;;;;;5.10;99.90;;;;;;4991592;28;19921;-66
2023/03/09 04:53:41;;;;;;;;;;;5.00;99.90;;;;;;4986309;28;19918;-65
2023/03/09 04:56:07;;;;;;;;;;;5.10;99.90;;;;;;4993517;28;19917;-65
2023/03/09 04:58:32;;;;;;;;;;;5.00;99.90;;;;;;4989997;28;20264;-65
2023/03/09 05:00:58;;;;;;;;;;;5.00;99.90;;;;;;4986963;28;19930;-66
2023/03/09 05:03:23;;;;;;;;;;;5.00;99.90;;;;;;4993383;28;20405;-66
2023/03/09 05:05:49;;;;;;;;;;;5.10;99.90;;;;;;4988687;28;19914;-66
2023/03/09 05:08:14;;;;;;;;;;;5.10;99.90;;;;;;4989878;28;19937;-66
2023/03/09 05:10:40;;;;;;;;;;;5.00;99.90;;;;;;4990635;28;19914;-66
2023/03/09 05:13:05;;;;;;;;;;;5.00;99.90;;;;;;4989900;28;19914;-67
2023/03/09 05:15:30;;;;;;;;;;;5.00;99.90;;;;;;4969982;28;19960;-66
2023/03/09 05:17:56;;;;;;;;;;;5.00;99.90;;;;;;4990851;28;20368;-66
2023/03/09 05:20:23;;;;;;;;;;;5.00;99.90;;;;;;4995576;28;19920;-66
2023/03/09 05:22:48;;;;;;;;;;;5.00;99.90;;;;;;4988797;28;19918;-65
2023/03/09 05:25:14;;;;;;;;;;;5.10;99.90;;;;;;4987110;28;19936;-65
2023/03/09 05:27:39;;;;;;;;;;;5.10;99.90;;;;;;4992041;28;20384;-66
2023/03/09 05:30:06;;;;;;;;;;;5.10;99.90;;;;;;4988685;28;19914;-65
2023/03/09 05:32:31;;;;;;;;;;;5.10;99.90;;;;;;4973727;28;19922;-64
2023/03/09 05:34:57;;;;;;;;;;;5.10;99.90;;;;;;4990804;28;19925;-66
2023/03/09 05:37:23;;;;;;;;;;;5.10;99.90;;;;;;4990191;28;19924;-67
2023/03/09 05:39:50;;;;;;;;;;;5.00;99.90;;;;;;4988904;28;19914;-66
2023/03/09 05:42:15;;;;;;;;;;;5.00;99.90;;;;;;4990672;28;20391;-65
2023/03/09 05:44:41;;;;;;;;;;;4.90;99.90;;;;;;4981076;28;20040;-66
2023/03/09 05:47:06;;;;;;;;;;;4.90;99.90;;;;;;4987067;28;20415;-66
2023/03/09 05:49:32;;;;;;;;;;;4.90;99.90;;;;;;4983234;28;19922;-66
2023/03/09 05:51:57;;;;;;;;;;;4.90;99.90;;;;;;4987560;28;19953;-66
2023/03/09 05:54:23;;;;;;;;;;;4.90;99.90;;;;;;4989069;28;19973;-67
2023/03/09 05:56:48;;;;;;;;;;;5.00;99.90;;;;;;4987759;28;19913;-66
2023/03/09 05:59:15;;;;;;;;;;;4.90;99.90;;;;;;4988777;28;19918;-65
2023/03/09 06:01:40;;;;;;;;;;;5.00;99.90;;;;;;4988806;28;19925;-62
2023/03/09 06:04:06;;;;;;;;;;;4.90;99.90;;;;;;4989980;28;19914;-62
2023/03/09 06:06:32;;;;;;;;;;;5.00;99.90;;;;;;4988497;28;19922;-62
2023/03/09 06:08:57;;;;;;;;;;;5.00;99.90;;;;;;4989805;28;19928;-60
2023/03/09 06:11:23;;;;;;;;;;;5.00;99.90;;;;;;4988804;28;19914;-62
2023/03/09 06:13:52;;;;;;;;;;;5.00;99.90;;;;;;4988929;28;19949;-60
2023/03/09 06:16:17;;;;;;;;;;;5.00;99.90;;;;;;4989568;28;19914;-62
2023/03/09 06:18:43;;;;;;;;;;;5.00;99.90;;;;;;4987402;28;20379;-62
2023/03/09 06:21:09;;;;;;;;;;;5.10;99.90;;;;;;4989929;28;19918;-61
2023/03/09 06:23:37;;;;;;;;;;;5.00;99.90;;;;;;4991331;28;19918;-58
2023/03/09 06:26:04;;;;;;;;;;;5.00;99.90;;;;;;4990474;28;20395;-63
2023/03/09 06:28:29;;;;;;;;;;;5.00;99.90;;;;;;4985836;28;19913;-63
2023/03/09 06:30:55;;;;;;;;;;;5.00;99.90;;;;;;4986452;28;19921;-62
2023/03/09 06:33:20;;;;;;;;;;;5.00;99.90;;;;;;4988980;28;19914;-62
2023/03/09 06:35:45;;;;;;;;;;;5.00;99.90;;;;;;4990048;28;20020;-61
2023/03/09 06:38:11;;;;;;;;;;;5.00;99.90;;;;;;4991186;28;19920;-62
2023/03/09 06:40:36;;;;;;;;;;;5.00;99.90;;;;;;4973344;28;19941;-62
2023/03/09 06:43:02;;;;;;;;;;;5.10;99.90;;;;;;4992377;28;19922;-62
2023/03/09 06:45:27;;;;;;;;;;;5.10;99.90;;;;;;4992499;28;19933;-62
2023/03/09 06:47:54;;;;;;;;;;;5.00;99.90;;;;;;4991211;28;20367;-62
2023/03/09 06:50:19;;;;;;;;;;;5.00;99.90;;;;;;4992223;28;20276;-62
2023/03/09 06:52:45;;;;;;;;;;;5.00;99.90;;;;;;4991865;28;19917;-62
2023/03/09 06:55:10;;;;;;;;;;;5.00;99.90;;;;;;4992368;28;19909;-63
2023/03/09 06:57:36;;;;;;;;;;;5.00;99.90;;;;;;4989085;28;19910;-61
2023/03/09 07:00:03;;;;;;;;;;;5.00;99.90;;;;;;4991268;28;20023;-62
2023/03/09 07:02:28;;;;;;;;;;;5.00;99.90;;;;;;4991901;28;20008;-64
2023/03/09 07:04:54;;;;;;;;;;;5.10;99.90;;;;;;4993259;28;20011;-63
2023/03/09 07:07:20;;;;;;;;;;;5.10;99.90;;;;;;4990540;28;19917;-62
2023/03/09 07:09:45;;;;;;;;;;;5.10;99.90;;;;;;4990946;28;19913;-63
2023/03/09 07:12:11;;;;;;;;;;;5.10;99.90;;;;;;4991074;28;20339;-64
2023/03/09 07:14:36;;;;;;;;;;;5.10;99.90;;;;;;4990823;28;19973;-62
2023/03/09 07:17:02;;;;;;;;;;;5.10;99.90;;;;;;4989965;28;19928;-60
2023/03/09 07:19:27;;;;;;;;;;;5.20;99.90;;;;;;4990613;28;19914;-61
2023/03/09 07:21:53;;;;;;;;;;;5.10;99.90;;;;;;4991517;28;19925;-62
2023/03/09 07:24:19;;;;;;;;;;;5.00;99.90;;;;;;4991518;28;19917;-62
2023/03/09 07:26:46;;;;;;;;;;;5.00;99.90;;;;;;4992527;28;19922;-62
2023/03/09 07:29:12;;;;;;;;;;;5.00;99.90;;;;;;4991919;28;19914;-63
2023/03/09 07:31:37;;;;;;;;;;;5.00;99.90;;;;;;4991770;28;19917;-62
2023/03/09 07:34:03;;;;;;;;;;;5.00;99.90;;;;;;4992359;28;20327;-62
2023/03/09 07:36:28;;;;;;;;;;;5.10;99.90;;;;;;4993423;28;19929;-62
2023/03/09 07:38:54;;;;;;;;;;;5.10;99.90;;;;;;4991367;28;20331;-62
2023/03/09 07:41:19;;;;;;;;;;;5.10;99.90;;;;;;4991578;28;20424;-62
2023/03/09 07:43:45;;;;;;;;;;;5.10;99.90;;;;;;4990638;28;19921;-62
2023/03/09 07:46:12;;;;;;;;;;;5.10;99.90;;;;;;4991434;28;19909;-62
2023/03/09 07:48:37;;;;;;;;;;;5.10;99.90;;;;;;4990885;28;19910;-62
2023/03/09 07:51:03;;;;;;;;;;;5.10;99.90;;;;;;4990492;28;19941;-62
2023/03/09 07:53:29;;;;;;;;;;;5.10;99.90;;;;;;4990512;28;19914;-62
2023/03/09 07:55:55;;;;;;;;;;;5.20;99.90;;;;;;4991094;28;20001;-62
2023/03/09 07:58:21;;;;;;;;;;;5.20;99.90;;;;;;4991679;28;19918;-62
2023/03/09 08:00:46;;;;;;;;;;;5.20;99.90;;;;;;4993110;28;19918;-62
2023/03/09 08:03:12;;;;;;;;;;;5.30;99.90;;;;;;4991542;28;19916;-62
2023/03/09 08:05:39;;;;;;;;;;;5.20;99.90;;;;;;4991028;28;19948;-62
2023/03/09 08:08:04;;;;;;;;;;;5.30;99.90;;;;;;4991567;28;19914;-62
2023/03/09 08:10:30;;;;;;;;;;;5.40;99.90;;;;;;4992044;28;19914;-63
2023/03/09 08:12:55;;;;;;;;;;;5.40;99.90;;;;;;4991083;28;19910;-62
2023/03/09 08:15:22;;;;;;;;;;;5.40;99.90;;;;;;4991682;28;19964;-62
2023/03/09 08:17:47;;;;;;;;;;;5.50;99.90;;;;;;4991595;28;19910;-62
2023/03/09 08:20:13;;;;;;;;;;;5.50;99.90;;;;;;4992549;28;20477;-61
2023/03/09 08:22:39;;;;;;;;;;;5.50;99.90;;;;;;4991077;28;19917;-62
2023/03/09 08:25:05;;;;;;;;;;;5.60;99.90;;;;;;4991210;28;19967;-61
2023/03/09 08:27:36;;;;;;;;;;;5.60;99.90;;;;;;4992586;28;19921;-62
2023/03/09 08:30:02;;;;;;;;;;;5.60;99.90;;;;;;4993958;28;19937;-62
2023/03/09 08:32:28;;;;;;;;;;;5.60;99.90;;;;;;4994988;28;19918;-60
2023/03/09 08:34:54;;;;;;;;;;;5.70;99.90;;;;;;4997665;28;20298;-61
2023/03/09 08:37:20;;;;;;;;;;;5.70;99.90;;;;;;4995088;28;19910;-60
2023/03/09 08:39:45;;;;;;;;;;;5.70;99.90;;;;;;4994839;28;19914;-61
2023/03/09 08:42:11;;;;;;;;;;;5.80;99.90;;;;;;4994779;28;19918;-61
2023/03/09 08:44:36;;;;;;;;;;;5.80;99.90;;;;;;4996380;28;19914;-61
2023/03/09 08:47:02;;;;;;;;;;;5.80;99.90;;;;;;4994415;28;19961;-58
2023/03/09 08:49:27;;;;;;;;;;;5.70;99.90;;;;;;4993684;28;19956;-61
2023/03/09 08:51:53;;;;;;;;;;;5.80;99.90;;;;;;4993632;28;19913;-62
2023/03/09 08:54:18;;;;;;;;;;;5.80;99.90;;;;;;4993800;28;19933;-61
2023/03/09 08:56:44;;;;;;;;;;;6.00;99.90;;;;;;4996053;28;19913;-59
2023/03/09 08:59:09;;;;;;;;;;;6.00;99.90;;;;;;4994724;28;19910;-61
2023/03/09 09:01:35;;;;;;;;;;;6.00;99.90;;;;;;4994455;28;19914;-61
2023/03/09 09:04:00;;;;;;;;;;;6.00;99.90;;;;;;4994811;28;19917;-62
2023/03/09 09:06:26;;;;;;;;;;;6.00;99.90;;;;;;4995327;28;20430;-61
2023/03/09 09:08:52;;;;;;;;;;;6.00;99.90;;;;;;4995085;28;20343;-61
2023/03/09 09:11:18;;;;;;;;;;;6.00;99.90;;;;;;4995137;28;19929;-61
2023/03/09 09:13:44;;;;;;;;;;;6.00;99.90;;;;;;4996474;28;19909;-60
2023/03/09 09:16:10;;;;;;;;;;;6.10;99.90;;;;;;5002305;28;20402;-62
2023/03/09 09:18:36;;;;;;;;;;;6.10;99.90;;;;;;4979444;28;20327;-62
2023/03/09 09:21:07;;;;;;;;;;;6.20;99.90;;;;;;4997592;28;20006;-61
2023/03/09 09:23:34;;;;;;;;;;;6.20;99.90;;;;;;4994783;28;19917;-61
2023/03/09 09:25:59;;;;;;;;;;;6.30;99.90;;;;;;4994333;28;20396;-61
2023/03/09 09:28:25;;;;;;;;;;;6.20;99.90;;;;;;4993957;28;19941;-62
2023/03/09 09:30:58;;;;;;;;;;;6.10;99.90;;;;;;4993884;28;19920;-61
2023/03/09 09:33:24;;;;;;;;;;;6.10;99.90;;;;;;4987916;28;20040;-60
2023/03/09 09:36:01;;;;;;;;;;;6.20;99.90;;;;;;4993812;28;20348;-61
2023/03/09 09:38:30;;;;;;;;;;;6.20;99.90;;;;;;4993231;28;21354;-59
2023/03/09 09:40:57;;;;;;;;;;;6.20;99.90;;;;;;4991508;28;19917;-61
2023/03/09 09:43:23;;;;;;;;;;;6.20;99.90;;;;;;4993374;28;19913;-60
2023/03/09 09:45:49;;;;;;;;;;;6.30;99.90;;;;;;4993391;28;20339;-60
2023/03/09 09:48:17;;;;;;;;;;;6.10;99.90;;;;;;4993587;28;19914;-60
2023/03/09 09:50:42;;;;;;;;;;;6.10;99.90;;;;;;4991794;28;19949;-61
2023/03/09 09:53:17;;;;;;;;;;;6.20;99.90;;;;;;4993191;28;19953;-61
2023/03/09 09:55:43;;;;;;;;;;;6.30;99.90;;;;;;4990276;28;19909;-60
2023/03/09 09:58:15;;;;;;;;;;;6.30;99.90;;;;;;4993393;28;19917;-60
2023/03/09 10:00:46;;;;;;;;;;;6.30;99.90;;;;;;4992946;28;19917;-61
2023/03/09 10:03:19;;;;;;;;;;;6.20;99.90;;;;;;4970217;28;20355;-61
2023/03/09 10:06:07;;;;;;;;;;;6.20;99.90;;;;;;4998474;28;19925;-60
2023/03/09 10:08:39;;;;;;;;;;;6.30;99.90;;;;;;4985191;28;19913;-61
2023/03/09 10:11:20;;;;;;;;;;;6.20;99.90;;;;;;4994179;28;19972;-61
2023/03/09 10:13:51;;;;;;;;;;;6.30;99.90;;;;;;4990217;28;19941;-61
2023/03/09 10:16:34;;;;;;;;;;;6.40;99.90;;;;;;4986988;28;19992;-60
2023/03/09 10:19:01;;;;;;;;;;;6.40;99.90;;;;;;4992807;28;19917;-61
2023/03/09 10:21:45;;;;;;;;;;;6.40;99.90;;;;;;4995538;28;19940;-60
2023/03/09 10:24:18;;;;;;;;;;;6.40;99.90;;;;;;4992434;28;19925;-61
2023/03/09 10:26:57;;;;;;;;;;;6.50;99.90;;;;;;4993000;28;20375;-61
2023/03/09 10:29:39;;;;;;;;;;;6.50;99.90;;;;;;4991732;28;19914;-61
2023/03/09 10:32:09;;;;;;;;;;;6.50;99.90;;;;;;4994639;28;19925;-61
2023/03/09 10:34:44;;;;;;;;;;;6.40;99.90;;;;;;4991404;28;19918;-59
2023/03/09 10:37:15;;;;;;;;;;;6.60;99.90;;;;;;4992137;28;20463;-61
2023/03/09 10:39:42;;;;;;;;;;;6.60;99.90;;;;;;4991958;28;19917;-60
2023/03/09 10:42:21;;;;;;;;;;;6.70;99.90;;;;;;4991794;28;19921;-61
2023/03/09 10:45:05;;;;;;;;;;;6.80;99.90;;;;;;4991966;28;19920;-60
2023/03/09 10:47:54;;;;;;;;;;;6.80;99.90;;;;;;4992736;28;20327;-61
2023/03/09 10:50:21;;;;;;;;;;;6.80;99.90;;;;;;4987976;28;20008;-60
2023/03/09 10:52:47;;;;;;;;;;;6.80;99.90;;;;;;4991947;28;19952;-60
2023/03/09 10:55:31;;;;;;;;;;;6.80;99.90;;;;;;4991879;28;19953;-61
2023/03/09 10:58:01;;;;;;;;;;;6.90;99.90;;;;;;4992043;28;19914;-62
2023/03/09 11:00:26;;;;;;;;;;;7.00;99.90;;;;;;4993654;28;19921;-59
2023/03/09 11:02:53;;;;;;;;;;;7.10;99.90;;;;;;4991410;28;19918;-61
2023/03/09 11:05:23;;;;;;;;;;;7.10;99.90;;;;;;4991893;28;19922;-61
2023/03/09 11:07:56;;;;;;;;;;;7.10;99.90;;;;;;4991844;28;19914;-61
2023/03/09 11:10:25;;;;;;;;;;;7.10;99.90;;;;;;4992163;28;19910;-60
2023/03/09 11:12:50;;;;;;;;;;;7.10;99.90;;;;;;4990486;28;20056;-59
2023/03/09 11:15:16;;;;;;;;;;;7.00;99.90;;;;;;4992029;28;19952;-62
2023/03/09 11:17:41;;;;;;;;;;;7.20;99.90;;;;;;4991712;28;20431;-60
2023/03/09 11:20:18;;;;;;;;;;;7.30;99.90;;;;;;4993592;28;20431;-61
2023/03/09 11:23:02;;;;;;;;;;;7.30;99.90;;;;;;4991441;28;19914;-61
2023/03/09 11:25:34;;;;;;;;;;;7.30;99.90;;;;;;4991810;28;19973;-61
2023/03/09 11:28:03;;;;;;;;;;;7.30;99.90;;;;;;4991554;28;19910;-61
2023/03/09 11:30:29;;;;;;;;;;;7.20;99.90;;;;;;4991720;28;19941;-61
2023/03/09 11:32:55;;;;;;;;;;;7.20;99.90;;;;;;4992218;28;19918;-61
2023/03/09 11:35:22;;;;;;;;;;;7.20;99.90;;;;;;4991253;28;19910;-61
2023/03/09 11:37:51;;;;;;;;;;;7.30;99.90;;;;;;4991641;28;19909;-62
2023/03/09 11:40:18;;;;;;;;;;;7.30;99.90;;;;;;4990136;28;19910;-61
2023/03/09 11:43:00;;;;;;;;;;;7.30;99.90;;;;;;4989970;28;19914;-62
2023/03/09 11:45:29;;;;;;;;;;;7.40;99.90;;;;;;4992379;28;19965;-61
2023/03/09 11:47:57;;;;;;;;;;;7.40;99.90;;;;;;4988985;28;19913;-60
2023/03/09 11:50:24;;;;;;;;;;;7.60;99.90;;;;;;4991375;28;19914;-61
2023/03/09 11:52:52;;;;;;;;;;;7.80;99.90;;;;;;4991137;28;19933;-61
2023/03/09 11:55:20;;;;;;;;;;;7.80;99.90;;;;;;4991464;28;19917;-60
2023/03/09 11:57:47;;;;;;;;;;;7.90;99.90;;;;;;4991221;28;19918;-61
2023/03/09 12:00:14;;;;;;;;;;;7.90;99.90;;;;;;4991201;28;20009;-61
2023/03/09 12:02:53;;;;;;;;;;;7.90;99.90;;;;;;4993564;28;19917;-61
2023/03/09 12:05:18;;;;;;;;;;;8.00;99.90;;;;;;4994601;28;19917;-61
2023/03/09 12:08:02;;;;;;;;;;;8.10;99.90;;;;;;4992125;28;19910;-60
2023/03/09 12:10:39;;;;;;;;;;;8.10;99.90;;;;;;4995297;28;19992;-62
2023/03/09 12:13:04;;;;;;;;;;;8.20;99.90;;;;;;4995436;28;19958;-59
2023/03/09 12:15:35;;;;;;;;;;;8.30;99.90;;;;;;4998863;28;19910;-59
2023/03/09 12:18:03;;;;;;;;;;;8.40;99.90;;;;;;4994987;28;20021;-61
2023/03/09 12:20:31;;;;;;;;;;;8.30;99.90;;;;;;4995057;28;19933;-62
2023/03/09 12:22:57;;;;;;;;;;;8.40;99.90;;;;;;4988325;28;19954;-60
2023/03/09 12:25:23;;;;;;;;;;;8.40;99.90;;;;;;4993152;28;20882;-60
2023/03/09 12:27:51;;;;;;;;;;;8.40;99.90;;;;;;4992796;28;19921;-61
2023/03/09 12:30:23;;;;;;;;;;;8.30;99.90;;;;;;4992144;28;19968;-62
2023/03/09 12:32:48;;;;;;;;;;;8.20;99.90;;;;;;4991338;28;19913;-62
2023/03/09 12:35:20;;;;;;;;;;;8.20;99.90;;;;;;4990444;28;20367;-61
2023/03/09 12:37:51;;;;;;;;;;;8.20;99.90;;;;;;4993320;28;19922;-62
2023/03/09 12:40:17;;;;;;;;;;;8.20;99.90;;;;;;4991290;28;20515;-61
2023/03/09 12:42:49;;;;;;;;;;;8.20;99.90;;;;;;4988811;28;19929;-61
2023/03/09 12:45:18;;;;;;;;;;;8.10;99.90;;;;;;4988103;28;19922;-61
2023/03/09 12:47:46;;;;;;;;;;;8.10;99.90;;;;;;4987119;28;19949;-60
2023/03/09 12:50:25;;;;;;;;;;;8.20;99.90;;;;;;4988318;28;19948;-60
2023/03/09 12:52:59;;;;;;;;;;;8.10;99.90;;;;;;4987327;28;19914;-60
2023/03/09 12:55:40;;;;;;;;;;;8.20;99.90;;;;;;4989860;28;19941;-60
2023/03/09 12:58:17;;;;;;;;;;;8.10;99.90;;;;;;4990131;28;19914;-61
2023/03/09 13:00:51;;;;;;;;;;;8.20;99.90;;;;;;4992768;28;20367;-62
2023/03/09 13:03:18;;;;;;;;;;;8.40;99.90;;;;;;4990668;28;19984;-62
2023/03/09 13:05:48;;;;;;;;;;;8.50;99.90;;;;;;4987941;28;19968;-60
2023/03/09 13:08:28;;;;;;;;;;;8.60;99.90;;;;;;4988711;28;19921;-60
2023/03/09 13:11:12;;;;;;;;;;;8.60;99.90;;;;;;4986694;28;20339;-61
2023/03/09 13:13:40;;;;;;;;;;;8.80;99.90;;;;;;4988792;28;19925;-60
2023/03/09 13:16:24;;;;;;;;;;;8.90;99.90;;;;;;4981047;28;19980;-60
2023/03/09 13:18:49;;;;;;;;;;;8.80;99.90;;;;;;4986660;28;20017;-59
2023/03/09 13:21:34;;;;;;;;;;;8.90;99.90;;;;;;4986548;28;20328;-61
2023/03/09 13:24:01;;;;;;;;;;;8.80;99.90;;;;;;4989376;28;20054;-60
2023/03/09 13:26:27;;;;;;;;;;;8.90;99.90;;;;;;4992325;28;19913;-60
2023/03/09 13:28:53;;;;;;;;;;;8.90;99.90;;;;;;4988030;28;20032;-60
2023/03/09 13:31:26;;;;;;;;;;;8.80;99.90;;;;;;4991319;28;20303;-58
2023/03/09 13:33:52;;;;;;;;;;;9.00;99.90;;;;;;4989582;28;19922;-62
2023/03/09 13:36:22;;;;;;;;;;;9.00;99.90;;;;;;4992329;28;20394;-59
2023/03/09 13:38:49;;;;;;;;;;;9.00;99.90;;;;;;4991289;28;19937;-62
2023/03/09 13:41:17;;;;;;;;;;;9.20;99.90;;;;;;4987422;28;20418;-60
2023/03/09 13:43:46;;;;;;;;;;;9.40;99.90;;;;;;4981397;28;20295;-62
2023/03/09 13:46:30;;;;;;;;;;;9.40;99.90;;;;;;4980891;28;20399;-58
2023/03/09 13:48:57;;;;;;;;;;;9.40;99.90;;;;;;4982220;28;19921;-62
2023/03/09 13:51:36;;;;;;;;;;;9.50;99.90;;;;;;4986266;28;19956;-60
2023/03/09 13:54:01;;;;;;;;;;;9.50;99.90;;;;;;4984709;28;20004;-60
2023/03/09 13:56:28;;;;;;;;;;;9.50;99.90;;;;;;4986005;28;19996;-62
2023/03/09 13:58:54;;;;;;;;;;;9.40;99.90;;;;;;4989022;28;19924;-60
2023/03/09 14:01:24;;;;;;;;;;;9.20;99.90;;;;;;4973993;28;19922;-59
2023/03/09 14:03:51;;;;;;;;;;;9.30;99.90;;;;;;4984934;28;19925;-61
2023/03/09 14:06:22;;;;;;;;;;;9.30;99.90;;;;;;4989774;28;19925;-61
2023/03/09 14:08:49;;;;;;;;;;;9.50;99.90;;;;;;4986997;28;19918;-61
2023/03/09 14:11:35;;;;;;;;;;;9.70;99.90;;;;;;4986192;28;20295;-60
2023/03/09 14:14:04;;;;;;;;;;;9.70;99.90;;;;;;4986047;28;20269;-60
2023/03/09 14:16:31;;;;;;;;;;;9.50;99.90;;;;;;4988657;28;19921;-60
2023/03/09 14:18:58;;;;;;;;;;;9.40;99.90;;;;;;4989123;28;20375;-62
2023/03/09 14:21:28;;;;;;;;;;;9.40;99.90;;;;;;4987203;28;19922;-61
2023/03/09 14:24:13;;;;;;;;;;;9.40;99.90;;;;;;4922914;28;1781292;-59
2023/03/09 14:26:38;;;;;;;;;;;9.50;99.90;;;;;;4982514;28;19945;-61
2023/03/09 14:29:05;;;;;;;;;;;9.50;99.90;;;;;;4994790;28;20551;-60
2023/03/09 14:31:32;;;;;;;;;;;9.60;99.90;;;;;;4991201;28;19914;-61
2023/03/09 14:33:57;;;;;;;;;;;9.60;99.90;;;;;;4989282;28;20790;-62